Time;durP1;ratioP1;P1;durP2;ratioP2;P2;SDS_P1;SDS_P2;PMS_P1;PMS_P2;Temp;Humidity;BMP_temperature;BMP_pressure;BME280_temperature;BME280_humidity;BME280_pressure;Samples;Min_cycle;Max_cycle;Signal;HPM_P1;HPM_P2
2022/01/14 00:00:43;;;;;;;57.95;24.42;;;6.20;99.90;;;;;;5087643;28;20044;-73
2022/01/14 00:03:10;;;;;;;57.33;24.75;;;6.10;99.90;;;;;;5091450;28;20039;-73
2022/01/14 00:05:35;;;;;;;48.75;22.55;;;6.10;99.90;;;;;;5087982;28;20044;-73
2022/01/14 00:08:01;;;;;;;54.38;23.52;;;6.10;99.90;;;;;;5084874;28;20100;-73
2022/01/14 00:10:30;;;;;;;56.85;24.45;;;6.20;99.90;;;;;;5092015;28;20039;-73
2022/01/14 00:13:04;;;;;;;50.63;24.13;;;6.20;99.90;;;;;;5085001;28;20058;-73
2022/01/14 00:15:34;;;;;;;49.53;23.85;;;6.20;99.90;;;;;;5123422;27;20471;-73
2022/01/14 00:18:01;;;;;;;53.30;24.88;;;6.20;99.90;;;;;;5088210;28;20052;-73
2022/01/14 00:20:27;;;;;;;60.22;26.42;;;6.20;99.90;;;;;;5086782;28;20038;-74
2022/01/14 00:22:53;;;;;;;58.47;24.48;;;6.10;99.90;;;;;;5117094;27;20528;-74
2022/01/14 00:33:49;;;;;;;60.88;25.52;;;6.10;99.90;;;;;;5015590;28;20053;-73
2022/01/14 00:36:15;;;;;;;57.92;25.17;;;6.20;99.90;;;;;;5037700;28;20041;-74
2022/01/14 00:38:40;;;;;;;51.30;24.33;;;6.20;99.90;;;;;;5060010;28;20082;-73
2022/01/14 00:41:06;;;;;;;48.63;23.42;;;6.20;99.90;;;;;;5088587;28;20040;-73
2022/01/14 00:43:31;;;;;;;56.08;23.70;;;6.20;99.90;;;;;;5089048;28;20048;-73
2022/01/14 00:45:57;;;;;;;48.53;23.52;;;6.10;99.90;;;;;;5090924;28;20040;-73
2022/01/14 00:48:23;;;;;;;59.03;24.45;;;6.20;99.90;;;;;;5086488;28;20040;-74
2022/01/14 00:50:48;;;;;;;57.33;24.50;;;6.10;99.90;;;;;;5085998;28;20105;-74
2022/01/14 00:53:14;;;;;;;53.92;23.38;;;6.20;99.90;;;;;;5088503;28;20043;-73
2022/01/14 00:56:21;;;;;;;50.00;24.02;;;6.20;99.90;;;;;;5115835;27;20042;-73
2022/01/14 01:01:15;;;;;;;55.85;23.50;;;6.20;99.90;;;;;;5121249;27;20049;-74
2022/01/14 01:03:41;;;;;;;53.30;23.95;;;6.20;99.90;;;;;;5086463;28;20471;-74
2022/01/14 01:06:07;;;;;;;55.13;25.10;;;6.20;99.90;;;;;;5085671;28;20499;-73
2022/01/14 01:08:34;;;;;;;52.00;24.80;;;6.10;99.90;;;;;;5083349;28;20050;-73
2022/01/14 01:11:04;;;;;;;53.88;25.83;;;6.20;99.90;;;;;;5081855;28;20054;-73
2022/01/14 01:13:34;;;;;;;49.45;24.63;;;6.20;99.90;;;;;;5084057;28;20093;-73
2022/01/14 01:16:03;;;;;;;54.90;24.65;;;6.20;99.90;;;;;;5085608;28;20483;-74
2022/01/14 01:18:29;;;;;;;48.78;23.33;;;6.20;99.90;;;;;;5089291;28;20553;-73
2022/01/14 01:20:55;;;;;;;50.88;23.88;;;6.20;99.90;;;;;;5088623;28;20083;-73
2022/01/14 01:23:20;;;;;;;55.10;25.33;;;6.20;99.90;;;;;;5119164;27;20040;-74
2022/01/14 01:25:53;;;;;;;54.22;22.85;;;6.20;99.90;;;;;;5092597;28;20685;-74
2022/01/14 01:28:18;;;;;;;51.17;23.83;;;6.20;99.90;;;;;;5093139;28;20044;-73
2022/01/14 01:33:16;;;;;;;52.33;23.60;;;6.20;99.90;;;;;;5120092;27;20130;-73
2022/01/14 01:35:42;;;;;;;51.92;24.50;;;6.20;99.90;;;;;;5093106;28;20130;-73
2022/01/14 01:38:09;;;;;;;57.10;24.73;;;6.20;99.90;;;;;;5087900;28;20419;-73
2022/01/14 01:40:36;;;;;;;47.50;23.48;;;6.20;99.90;;;;;;5089126;28;20044;-73
2022/01/14 01:43:06;;;;;;;49.30;23.17;;;6.20;99.90;;;;;;5091417;28;20044;-74
2022/01/14 01:45:32;;;;;;;52.40;23.58;;;6.20;99.90;;;;;;5090090;28;20040;-73
2022/01/14 01:47:58;;;;;;;50.28;23.73;;;6.20;99.90;;;;;;5087397;28;20082;-73
2022/01/14 01:50:27;;;;;;;49.25;23.38;;;6.20;99.90;;;;;;5087191;28;20036;-74
2022/01/14 01:52:53;;;;;;;51.55;23.38;;;6.20;99.90;;;;;;5093753;28;20474;-73
2022/01/14 01:55:20;;;;;;;54.13;23.55;;;6.30;99.90;;;;;;5086119;28;20044;-74
2022/01/14 01:57:47;;;;;;;47.72;24.80;;;6.20;99.90;;;;;;5088561;28;20044;-74
2022/01/14 02:00:16;;;;;;;49.63;25.40;;;6.30;99.90;;;;;;5084490;28;20048;-74
2022/01/14 02:02:42;;;;;;;54.20;25.52;;;6.30;99.90;;;;;;5087242;28;20828;-74
2022/01/14 02:05:08;;;;;;;49.55;24.92;;;6.30;99.90;;;;;;5086518;28;20040;-73
2022/01/14 02:07:35;;;;;;;47.35;24.65;;;6.30;99.90;;;;;;5090215;28;20532;-73
2022/01/14 02:10:02;;;;;;;47.35;25.13;;;6.30;99.90;;;;;;5089752;28;20593;-74
2022/01/14 02:12:37;;;;;;;45.30;24.52;;;6.30;99.90;;;;;;5124160;27;20518;-73
2022/01/14 02:15:11;;;;;;;55.75;26.00;;;6.30;99.90;;;;;;5091396;28;20032;-73
2022/01/14 02:23:02;;;;;;;49.15;25.52;;;6.30;99.90;;;;;;5090136;28;20429;-73
2022/01/14 02:25:29;;;;;;;53.58;25.35;;;6.30;99.90;;;;;;5089739;28;20073;-73
2022/01/14 02:28:06;;;;;;;52.25;25.25;;;6.30;99.90;;;;;;5089902;28;20044;-73
2022/01/14 02:30:35;;;;;;;47.30;24.15;;;6.30;99.90;;;;;;5086206;28;20089;-73
2022/01/14 02:33:00;;;;;;;57.95;25.52;;;6.30;99.90;;;;;;5086212;28;20071;-73
2022/01/14 02:35:27;;;;;;;48.33;24.95;;;6.30;99.90;;;;;;5089256;28;20464;-74
2022/01/14 02:37:53;;;;;;;40.78;24.00;;;6.30;99.90;;;;;;5090116;28;20658;-73
2022/01/14 02:40:19;;;;;;;50.65;26.52;;;6.30;99.90;;;;;;5092881;28;20052;-73
2022/01/14 02:42:48;;;;;;;39.30;24.55;;;6.30;99.90;;;;;;5090831;28;20044;-74
2022/01/14 02:45:14;;;;;;;50.72;25.00;;;6.30;99.90;;;;;;5087394;28;20037;-73
2022/01/14 02:47:40;;;;;;;45.78;24.45;;;6.30;99.90;;;;;;5083588;28;20045;-73
2022/01/14 02:50:09;;;;;;;50.70;24.42;;;6.30;99.90;;;;;;5088932;28;20040;-73
2022/01/14 02:55:22;;;;;;;43.55;25.08;;;6.30;99.90;;;;;;5093308;28;20093;-73
2022/01/14 02:57:51;;;;;;;49.03;25.90;;;6.30;99.90;;;;;;5089386;28;20065;-73
2022/01/14 03:00:20;;;;;;;50.63;25.55;;;6.30;99.90;;;;;;5091145;28;20143;-73
2022/01/14 03:02:48;;;;;;;55.58;26.25;;;6.30;99.90;;;;;;5085963;28;20047;-73
2022/01/14 03:05:16;;;;;;;51.13;27.60;;;6.20;99.90;;;;;;5125271;27;20058;-73
2022/01/14 03:07:42;;;;;;;52.08;29.10;;;6.30;99.90;;;;;;5119668;27;20044;-73
2022/01/14 03:10:10;;;;;;;54.35;30.67;;;6.30;99.90;;;;;;5087185;28;20039;-73
2022/01/14 03:12:37;;;;;;;68.53;30.88;;;6.20;99.90;;;;;;5088408;28;20055;-73
2022/01/14 03:15:03;;;;;;;60.85;30.40;;;6.20;99.90;;;;;;5090815;28;20090;-74
2022/01/14 03:17:30;;;;;;;63.35;31.48;;;6.20;99.90;;;;;;5088140;28;20085;-73
2022/01/14 03:19:58;;;;;;;63.20;32.17;;;6.20;99.90;;;;;;5092976;28;20451;-73
2022/01/14 03:22:34;;;;;;;58.72;30.52;;;6.20;99.90;;;;;;5087190;28;20562;-73
2022/01/14 03:27:46;;;;;;;69.75;30.40;;;6.10;99.90;;;;;;5087960;28;20055;-73
2022/01/14 03:30:12;;;;;;;58.05;30.77;;;6.10;99.90;;;;;;5087758;28;20040;-73
2022/01/14 03:32:39;;;;;;;60.40;31.08;;;6.10;99.90;;;;;;5089229;28;20116;-73
2022/01/14 03:35:06;;;;;;;72.63;32.30;;;6.00;99.90;;;;;;5092044;28;20054;-73
2022/01/14 03:37:32;;;;;;;60.50;30.75;;;6.00;99.90;;;;;;5090562;28;20081;-73
2022/01/14 03:39:58;;;;;;;68.20;32.58;;;6.10;99.90;;;;;;5087546;28;20474;-73
2022/01/14 03:42:23;;;;;;;62.78;31.60;;;6.00;99.90;;;;;;5089894;28;20036;-74
2022/01/14 03:44:49;;;;;;;60.25;30.75;;;6.00;99.90;;;;;;5088871;28;20394;-73
2022/01/14 03:47:15;;;;;;;67.38;32.30;;;6.00;99.90;;;;;;5088857;28;20101;-73
2022/01/14 03:49:40;;;;;;;65.93;31.70;;;6.00;99.90;;;;;;5090175;28;20498;-73
2022/01/14 03:52:06;;;;;;;58.17;30.08;;;6.00;99.90;;;;;;5121421;27;20036;-73
2022/01/14 03:54:32;;;;;;;69.15;32.45;;;6.00;99.90;;;;;;5090715;28;20043;-73
2022/01/14 03:56:58;;;;;;;61.40;30.63;;;6.00;99.90;;;;;;5089184;28;20047;-73
2022/01/14 03:59:23;;;;;;;65.43;30.27;;;6.00;99.90;;;;;;5087879;28;20043;-73
2022/01/14 04:01:49;;;;;;;62.13;30.25;;;6.00;99.90;;;;;;5089599;28;20036;-74
2022/01/14 04:04:14;;;;;;;66.13;31.85;;;6.00;99.90;;;;;;5089154;28;20173;-73
2022/01/14 04:06:40;;;;;;;64.90;29.80;;;6.00;99.90;;;;;;5089002;28;20032;-73
2022/01/14 04:09:06;;;;;;;61.13;30.23;;;5.90;99.90;;;;;;5086228;28;20037;-73
2022/01/14 04:11:33;;;;;;;64.50;30.35;;;6.00;99.90;;;;;;5088520;28;20087;-73
2022/01/14 04:15:36;;;;;;;62.42;31.15;;;6.00;99.90;;;;;;5083283;28;20043;-73
2022/01/14 04:16:45;;;;;;;58.28;29.13;;;6.00;99.90;;;;;;5087225;28;20082;-73
2022/01/14 04:19:11;;;;;;;52.78;28.88;;;5.90;99.90;;;;;;5087714;28;20056;-73
2022/01/14 04:21:37;;;;;;;61.40;30.63;;;5.90;99.90;;;;;;5089851;28;20077;-73
2022/01/14 04:24:02;;;;;;;58.20;29.40;;;5.90;99.90;;;;;;5092819;28;20040;-73
2022/01/14 04:26:28;;;;;;;57.20;31.33;;;6.00;99.90;;;;;;5089977;28;20505;-73
2022/01/14 04:28:54;;;;;;;54.25;28.08;;;6.00;99.90;;;;;;5091053;28;20030;-73
2022/01/14 04:31:19;;;;;;;53.83;27.70;;;5.90;99.90;;;;;;5088460;28;20566;-73
2022/01/14 04:33:45;;;;;;;53.42;27.77;;;6.00;99.90;;;;;;5089931;28;20039;-73
2022/01/14 04:36:10;;;;;;;50.70;28.90;;;5.90;99.90;;;;;;5090759;28;20043;-73
2022/01/14 04:38:36;;;;;;;55.05;28.05;;;5.90;99.90;;;;;;5086701;28;20041;-73
2022/01/14 04:41:03;;;;;;;50.40;28.52;;;6.00;99.90;;;;;;5087075;28;20036;-73
2022/01/14 04:43:29;;;;;;;58.55;26.52;;;6.00;99.90;;;;;;5117896;27;20483;-73
2022/01/14 04:48:28;;;;;;;58.28;28.48;;;6.00;99.90;;;;;;5084959;28;20067;-73
2022/01/14 04:50:55;;;;;;;55.15;28.35;;;5.90;99.90;;;;;;5087057;28;20127;-73
2022/01/14 04:53:22;;;;;;;50.55;28.92;;;5.90;99.90;;;;;;5090198;28;20472;-72
2022/01/14 04:55:49;;;;;;;53.78;29.63;;;5.90;99.90;;;;;;5085009;28;20055;-72
2022/01/14 04:58:15;;;;;;;56.35;29.20;;;5.80;99.90;;;;;;5087382;28;20054;-72
2022/01/14 05:00:40;;;;;;;57.17;29.52;;;5.80;99.90;;;;;;5087610;28;20032;-73
2022/01/14 05:03:07;;;;;;;61.30;30.80;;;5.90;99.90;;;;;;5084300;28;20051;-73
2022/01/14 05:05:36;;;;;;;55.95;30.35;;;5.80;99.90;;;;;;5085855;28;20093;-73
2022/01/14 05:08:05;;;;;;;59.88;31.27;;;5.80;99.90;;;;;;5115616;27;20047;-73
2022/01/14 05:12:56;;;;;;;58.90;30.38;;;5.80;99.90;;;;;;5089376;28;20401;-73
2022/01/14 05:15:22;;;;;;;60.65;29.80;;;5.80;99.90;;;;;;5085043;28;20044;-73
2022/01/14 05:17:49;;;;;;;52.35;28.45;;;5.80;99.90;;;;;;5087659;28;20055;-73
2022/01/14 05:20:17;;;;;;;65.55;30.70;;;5.80;99.90;;;;;;5087228;28;20084;-73
2022/01/14 05:22:43;;;;;;;58.80;31.42;;;5.70;99.90;;;;;;5082850;28;20088;-73
2022/01/14 05:25:11;;;;;;;53.85;30.48;;;5.70;99.90;;;;;;5078445;28;20037;-73
2022/01/14 05:27:37;;;;;;;60.47;30.30;;;5.80;99.90;;;;;;5078031;28;20032;-72
2022/01/14 05:30:08;;;;;;;63.58;29.25;;;5.70;99.90;;;;;;5074190;28;20523;-73
2022/01/14 05:32:34;;;;;;;57.38;30.40;;;5.70;99.90;;;;;;5083274;28;20448;-73
2022/01/14 05:35:00;;;;;;;50.38;28.88;;;5.70;99.90;;;;;;5078674;28;20040;-73
2022/01/14 05:37:26;;;;;;;63.35;29.13;;;5.70;99.90;;;;;;5074747;28;20509;-73
2022/01/14 05:39:52;;;;;;;63.50;29.35;;;5.70;99.90;;;;;;5088403;28;20092;-73
2022/01/14 05:42:18;;;;;;;46.92;27.50;;;5.70;99.90;;;;;;5086240;28;20320;-73
2022/01/14 05:44:44;;;;;;;49.30;28.58;;;5.70;99.90;;;;;;5089143;28;20063;-73
2022/01/14 05:47:09;;;;;;;50.92;29.17;;;5.70;99.90;;;;;;5085797;28;20495;-73
2022/01/14 05:49:35;;;;;;;44.55;27.63;;;5.70;99.90;;;;;;5080043;28;20055;-73
2022/01/14 05:52:01;;;;;;;51.75;27.17;;;5.70;99.90;;;;;;5077425;28;20048;-73
2022/01/14 05:54:26;;;;;;;53.50;27.92;;;5.70;99.90;;;;;;5076132;28;20044;-73
2022/01/14 05:56:52;;;;;;;47.15;27.38;;;5.70;99.90;;;;;;5081805;28;20486;-73
2022/01/14 05:59:18;;;;;;;51.00;28.65;;;5.70;99.90;;;;;;5078353;28;20047;-73
2022/01/14 06:01:44;;;;;;;47.10;27.08;;;5.70;99.90;;;;;;5108317;27;20051;-73
2022/01/14 06:04:10;;;;;;;50.83;27.75;;;5.70;99.90;;;;;;5081711;28;20507;-73
2022/01/14 06:06:36;;;;;;;47.35;27.17;;;5.70;99.90;;;;;;5078089;28;20044;-73
2022/01/14 06:09:03;;;;;;;48.67;26.27;;;5.70;99.90;;;;;;5085671;28;20035;-73
2022/01/14 06:11:29;;;;;;;47.20;28.35;;;5.70;99.90;;;;;;5080287;28;20383;-73
2022/01/14 06:13:55;;;;;;;40.70;26.42;;;5.70;99.90;;;;;;5090536;28;20047;-73
2022/01/14 06:16:21;;;;;;;45.15;26.30;;;5.70;99.90;;;;;;5089164;28;20043;-73
2022/01/14 06:18:46;;;;;;;47.75;26.60;;;5.70;99.90;;;;;;5089791;28;20043;-73
2022/01/14 06:21:12;;;;;;;47.22;26.90;;;5.60;99.90;;;;;;5091491;28;20494;-73
2022/01/14 06:23:38;;;;;;;45.45;26.98;;;5.70;99.90;;;;;;5089045;28;20064;-73
2022/01/14 06:26:04;;;;;;;40.88;26.23;;;5.70;99.90;;;;;;5090954;28;20044;-73
2022/01/14 06:28:29;;;;;;;48.35;27.15;;;5.70;99.90;;;;;;5089386;28;20036;-73
2022/01/14 06:30:55;;;;;;;44.25;27.63;;;5.70;99.90;;;;;;5093513;28;20105;-73
2022/01/14 06:33:21;;;;;;;43.90;25.65;;;5.70;99.90;;;;;;5096980;28;20485;-73
2022/01/14 06:35:47;;;;;;;42.92;27.02;;;5.70;99.90;;;;;;5091165;28;20040;-73
2022/01/14 06:38:12;;;;;;;38.50;26.17;;;5.70;99.90;;;;;;5088710;28;20550;-73
2022/01/14 06:40:38;;;;;;;43.38;25.95;;;5.70;99.90;;;;;;5088926;28;20040;-73
2022/01/14 06:43:05;;;;;;;39.42;24.95;;;5.80;99.90;;;;;;5086191;28;20089;-73
2022/01/14 06:45:32;;;;;;;38.25;24.23;;;5.70;99.90;;;;;;5086775;28;20173;-73
2022/01/14 06:47:58;;;;;;;39.10;24.08;;;5.70;99.90;;;;;;5088592;28;20423;-73
2022/01/14 06:50:24;;;;;;;35.10;23.05;;;5.80;99.90;;;;;;5091203;28;20587;-73
2022/01/14 06:52:50;;;;;;;40.80;23.90;;;5.70;99.90;;;;;;5070583;28;20134;-72
2022/01/14 06:55:17;;;;;;;39.05;24.33;;;5.70;99.90;;;;;;5092030;28;20515;-73
2022/01/14 06:57:43;;;;;;;36.17;22.10;;;5.80;99.90;;;;;;5087220;28;20478;-73
2022/01/14 07:00:14;;;;;;;43.03;22.70;;;5.80;99.90;;;;;;5090412;28;20040;-73
2022/01/14 07:02:40;;;;;;;35.30;22.98;;;5.80;99.90;;;;;;5091322;28;20071;-73
2022/01/14 07:05:07;;;;;;;38.63;22.05;;;5.80;99.90;;;;;;5085544;28;20123;-74
2022/01/14 07:07:34;;;;;;;34.97;21.00;;;5.80;99.90;;;;;;5090902;28;20043;-74
2022/01/14 07:10:00;;;;;;;37.10;22.42;;;5.90;99.90;;;;;;5088154;28;20040;-74
2022/01/14 07:12:29;;;;;;;34.53;21.40;;;5.90;99.90;;;;;;5085843;28;20203;-74
2022/01/14 07:14:56;;;;;;;35.33;21.60;;;5.80;99.90;;;;;;5087020;28;20039;-74
2022/01/14 07:17:23;;;;;;;35.28;21.25;;;5.90;99.90;;;;;;5085826;28;20436;-74
2022/01/14 07:19:51;;;;;;;41.70;22.23;;;5.90;99.90;;;;;;5086445;28;20048;-74
2022/01/14 07:22:17;;;;;;;34.15;21.45;;;5.90;99.90;;;;;;5090274;28;20043;-74
2022/01/14 07:24:43;;;;;;;30.42;20.17;;;5.90;99.90;;;;;;5082782;28;20035;-74
2022/01/14 07:27:08;;;;;;;34.20;21.85;;;5.90;99.90;;;;;;5077455;28;20044;-74
2022/01/14 07:29:34;;;;;;;41.88;21.38;;;6.00;99.90;;;;;;5079867;28;20072;-74
2022/01/14 07:32:00;;;;;;;30.70;20.83;;;6.00;99.90;;;;;;5080050;28;20067;-74
2022/01/14 07:34:26;;;;;;;32.00;20.00;;;6.00;99.90;;;;;;5077991;28;20635;-74
2022/01/14 07:36:52;;;;;;;31.42;20.17;;;6.00;99.90;;;;;;5080841;28;20036;-74
2022/01/14 07:39:19;;;;;;;30.40;20.23;;;5.90;99.90;;;;;;5084813;28;20044;-74
2022/01/14 07:41:46;;;;;;;33.22;20.17;;;6.00;99.90;;;;;;5089091;28;20044;-74
2022/01/14 07:44:12;;;;;;;37.30;22.10;;;5.90;99.90;;;;;;5085696;28;20104;-74
2022/01/14 07:46:38;;;;;;;32.75;21.38;;;6.00;99.90;;;;;;5083163;28;20058;-74
2022/01/14 07:49:04;;;;;;;37.90;19.58;;;6.00;99.90;;;;;;5076540;28;20036;-74
2022/01/14 07:51:30;;;;;;;34.22;19.92;;;5.90;99.90;;;;;;5108394;27;20134;-75
2022/01/14 07:53:56;;;;;;;41.92;20.58;;;6.00;99.90;;;;;;5076055;28;20051;-74
2022/01/14 07:56:23;;;;;;;33.88;19.80;;;6.00;99.90;;;;;;5074828;28;20039;-74
2022/01/14 07:58:49;;;;;;;39.25;20.48;;;6.10;99.90;;;;;;5079300;28;20109;-74
2022/01/14 08:01:14;;;;;;;34.08;19.60;;;6.10;99.90;;;;;;5078399;28;20049;-74
2022/01/14 08:03:40;;;;;;;35.17;19.35;;;6.10;99.90;;;;;;5082227;28;20422;-74
2022/01/14 08:06:06;;;;;;;31.25;19.40;;;6.00;99.90;;;;;;5077682;28;20055;-74
2022/01/14 08:08:32;;;;;;;34.65;18.80;;;6.00;99.90;;;;;;5077064;28;20035;-75
2022/01/14 08:10:58;;;;;;;31.67;18.13;;;6.10;99.90;;;;;;5077461;28;20036;-74
2022/01/14 08:13:24;;;;;;;32.65;17.23;;;6.10;99.90;;;;;;5075245;28;20090;-74
2022/01/14 08:15:49;;;;;;;28.45;16.92;;;6.10;99.90;;;;;;5081047;28;20059;-74
2022/01/14 08:18:15;;;;;;;33.67;17.63;;;6.00;99.90;;;;;;5077915;28;20037;-74
2022/01/14 08:20:41;;;;;;;26.20;17.17;;;6.10;99.90;;;;;;5075649;28;20139;-74
2022/01/14 08:23:06;;;;;;;32.80;17.00;;;6.10;99.90;;;;;;5078902;28;20492;-74
2022/01/14 08:25:32;;;;;;;40.92;16.92;;;6.10;99.90;;;;;;5073816;28;20043;-74
2022/01/14 08:27:58;;;;;;;30.13;16.20;;;6.20;99.90;;;;;;5073161;28;20078;-74
2022/01/14 08:30:24;;;;;;;40.35;17.83;;;6.20;99.90;;;;;;5075361;28;20142;-74
2022/01/14 08:32:50;;;;;;;30.88;15.73;;;6.20;99.90;;;;;;5056283;28;20123;-75
2022/01/14 08:35:16;;;;;;;31.52;15.98;;;6.30;99.90;;;;;;5076867;28;20127;-75
2022/01/14 08:37:41;;;;;;;32.92;16.15;;;6.20;99.90;;;;;;5078039;28;20464;-75
2022/01/14 08:40:09;;;;;;;36.60;16.02;;;6.30;99.90;;;;;;5111062;27;20438;-75
2022/01/14 08:42:35;;;;;;;29.33;13.75;;;6.30;99.90;;;;;;5081711;28;20036;-74
2022/01/14 08:45:01;;;;;;;22.60;14.23;;;6.30;99.90;;;;;;5083588;28;20047;-75
2022/01/14 08:47:27;;;;;;;26.67;14.18;;;6.20;99.90;;;;;;5081181;28;20624;-75
2022/01/14 08:49:52;;;;;;;31.63;13.77;;;6.40;99.90;;;;;;5078568;28;20103;-75
2022/01/14 08:52:18;;;;;;;33.92;13.27;;;6.40;99.90;;;;;;5112855;27;20174;-75
2022/01/14 08:54:44;;;;;;;25.02;13.00;;;6.40;99.90;;;;;;5079676;28;20040;-75
2022/01/14 08:57:10;;;;;;;31.95;13.82;;;6.40;99.90;;;;;;5079316;28;20032;-74
2022/01/14 08:59:36;;;;;;;28.27;13.55;;;6.40;99.90;;;;;;5078717;28;20059;-75
2022/01/14 09:02:03;;;;;;;22.23;13.35;;;6.40;99.90;;;;;;5110179;27;20103;-74
2022/01/14 09:04:28;;;;;;;26.35;13.93;;;6.50;99.90;;;;;;5081099;28;20491;-75
2022/01/14 09:06:54;;;;;;;26.38;13.18;;;6.50;99.90;;;;;;5075677;28;20066;-75
2022/01/14 09:09:20;;;;;;;28.27;13.43;;;6.50;99.90;;;;;;5079982;28;20044;-74
2022/01/14 09:11:46;;;;;;;19.25;12.70;;;6.50;99.90;;;;;;5076770;28;20052;-75
2022/01/14 09:14:12;;;;;;;33.45;13.27;;;6.50;99.90;;;;;;5074847;28;20048;-74
2022/01/14 09:16:38;;;;;;;26.65;13.02;;;6.60;99.90;;;;;;5106073;27;20041;-75
2022/01/14 09:19:04;;;;;;;20.17;12.48;;;6.60;99.90;;;;;;5074390;28;20055;-75
2022/01/14 09:21:29;;;;;;;24.05;13.10;;;6.60;99.90;;;;;;5076658;28;20495;-75
2022/01/14 09:24:03;;;;;;;22.33;13.35;;;6.60;99.90;;;;;;5078050;28;20037;-75
2022/01/14 09:26:30;;;;;;;22.38;11.70;;;6.70;99.90;;;;;;5106279;27;20395;-75
2022/01/14 09:28:55;;;;;;;25.00;12.63;;;6.70;99.90;;;;;;5110438;27;20048;-75
2022/01/14 09:31:21;;;;;;;28.08;11.60;;;6.70;99.90;;;;;;5075244;28;20033;-75
2022/01/14 09:33:47;;;;;;;22.00;11.65;;;6.80;99.90;;;;;;5073340;28;20051;-75
2022/01/14 09:36:12;;;;;;;25.13;11.25;;;6.80;99.90;;;;;;5077031;28;21590;-74
2022/01/14 09:38:38;;;;;;;26.13;12.20;;;6.80;99.90;;;;;;5108126;27;20055;-75
2022/01/14 09:41:07;;;;;;;31.00;11.73;;;6.80;99.90;;;;;;5076736;28;20066;-75
2022/01/14 09:43:36;;;;;;;20.17;12.43;;;6.90;99.90;;;;;;5083421;28;20143;-75
2022/01/14 09:46:06;;;;;;;21.33;11.43;;;6.90;99.90;;;;;;5077854;28;20487;-75
2022/01/14 09:48:32;;;;;;;27.35;12.07;;;6.90;99.90;;;;;;5080197;28;20483;-75
2022/01/14 09:50:59;;;;;;;24.42;11.25;;;6.90;99.90;;;;;;5096713;27;20036;-75
2022/01/14 09:53:26;;;;;;;19.73;11.43;;;7.00;99.90;;;;;;5079335;28;20040;-75
2022/01/14 09:55:53;;;;;;;22.30;12.13;;;7.10;99.90;;;;;;5079000;28;20041;-75
2022/01/14 09:58:18;;;;;;;24.38;11.25;;;7.10;99.90;;;;;;5079065;28;20048;-75
2022/01/14 10:00:45;;;;;;;21.77;10.63;;;7.10;99.90;;;;;;5079740;28;20484;-75
2022/01/14 10:03:25;;;;;;;24.40;10.88;;;7.20;99.90;;;;;;5085094;28;20070;-75
2022/01/14 10:05:55;;;;;;;22.20;10.00;;;7.20;99.90;;;;;;5081990;28;20063;-75
2022/01/14 10:08:25;;;;;;;21.13;9.95;;;7.20;99.90;;;;;;5081040;28;21711;-75
2022/01/14 10:10:54;;;;;;;20.42;9.25;;;7.20;99.90;;;;;;5079848;28;20394;-76
2022/01/14 10:13:32;;;;;;;25.70;9.35;;;7.20;99.90;;;;;;5081715;28;20150;-76
2022/01/14 10:16:06;;;;;;;15.30;7.93;;;7.30;99.90;;;;;;5080875;28;20036;-75
2022/01/14 10:18:33;;;;;;;17.33;7.80;;;7.30;99.90;;;;;;5077130;28;20044;-76
2022/01/14 10:21:01;;;;;;;20.63;8.80;;;7.30;99.90;;;;;;5077798;28;20083;-76
2022/01/14 10:23:40;;;;;;;16.52;7.13;;;7.30;99.90;;;;;;5081432;28;20044;-76
2022/01/14 10:26:06;;;;;;;16.52;7.75;;;7.40;99.90;;;;;;5081286;28;20055;-75
2022/01/14 10:28:32;;;;;;;14.75;6.25;;;7.40;99.90;;;;;;5083678;28;20387;-76
2022/01/14 10:30:57;;;;;;;16.45;6.47;;;7.40;99.90;;;;;;5077018;28;20451;-76
2022/01/14 10:33:28;;;;;;;13.75;5.82;;;7.50;99.90;;;;;;5078735;28;20050;-75
2022/01/14 10:35:54;;;;;;;19.17;6.07;;;7.40;99.90;;;;;;5075231;28;20070;-76
2022/01/14 10:38:21;;;;;;;13.32;5.20;;;7.50;99.90;;;;;;5077124;28;20117;-75
2022/01/14 10:40:53;;;;;;;16.58;4.82;;;7.50;99.90;;;;;;5073013;28;20048;-76
2022/01/14 10:43:21;;;;;;;14.93;5.03;;;7.50;99.90;;;;;;5081287;28;20048;-76
2022/01/14 10:45:48;;;;;;;16.38;4.60;;;7.60;99.90;;;;;;5078109;28;20047;-76
2022/01/14 10:48:16;;;;;;;11.27;4.65;;;7.60;99.90;;;;;;5081020;28;20036;-76
2022/01/14 10:50:45;;;;;;;12.35;4.25;;;7.60;99.90;;;;;;5112361;27;20036;-76
2022/01/14 10:53:21;;;;;;;10.27;3.95;;;7.60;99.90;;;;;;5078614;28;20060;-76
2022/01/14 10:55:52;;;;;;;13.80;4.47;;;7.60;99.90;;;;;;5077174;28;20085;-76
2022/01/14 10:58:23;;;;;;;17.42;4.90;;;7.60;99.90;;;;;;5081834;28;20046;-75
2022/01/14 11:01:00;;;;;;;17.42;4.47;;;7.60;99.90;;;;;;5094543;27;20078;-76
2022/01/14 11:03:36;;;;;;;12.52;3.92;;;7.60;99.90;;;;;;5076551;28;20093;-76
2022/01/14 11:06:21;;;;;;;17.77;4.55;;;7.70;99.90;;;;;;5077635;28;20055;-76
2022/01/14 11:08:48;;;;;;;13.68;5.28;;;7.70;99.90;;;;;;5082762;28;20418;-76
2022/01/14 11:11:15;;;;;;;16.55;4.63;;;7.70;99.90;;;;;;5084293;28;20047;-75
2022/01/14 11:13:42;;;;;;;13.82;4.35;;;7.70;99.90;;;;;;5081393;28;20120;-76
2022/01/14 11:16:08;;;;;;;12.90;3.70;;;7.70;99.90;;;;;;5083158;28;20081;-76
2022/01/14 11:18:33;;;;;;;10.02;3.78;;;7.70;99.90;;;;;;5095653;27;20050;-76
2022/01/14 11:23:43;;;;;;;13.85;4.00;;;7.80;99.90;;;;;;5076561;28;20098;-76
2022/01/14 11:26:15;;;;;;;11.95;3.00;;;7.70;99.90;;;;;;5077024;28;20067;-76
2022/01/14 11:28:43;;;;;;;10.00;2.88;;;7.70;99.90;;;;;;5078540;28;20117;-76
2022/01/14 11:31:27;;;;;;;17.98;3.83;;;7.70;99.90;;;;;;5079502;28;20029;-75
2022/01/14 11:33:53;;;;;;;12.52;3.10;;;7.70;99.90;;;;;;5079669;28;20079;-75
2022/01/14 11:36:19;;;;;;;11.93;2.72;;;7.70;99.90;;;;;;5076380;28;20052;-76
2022/01/14 11:38:46;;;;;;;12.43;2.90;;;7.80;99.90;;;;;;5079009;28;20773;-76
2022/01/14 11:41:16;;;;;;;14.13;2.78;;;7.70;99.90;;;;;;5076841;28;20514;-76
2022/01/14 11:43:46;;;;;;;15.32;3.70;;;7.70;99.90;;;;;;5080975;28;20101;-76
2022/01/14 11:46:36;;;;;;;12.15;3.13;;;7.70;99.90;;;;;;5081378;28;20045;-75
2022/01/14 11:49:22;;;;;;;19.85;3.75;;;7.80;99.90;;;;;;5079902;28;20040;-75
2022/01/14 11:51:59;;;;;;;;;;;7.80;99.90;;;;;;5080290;28;20659;-76
2022/01/14 11:54:37;;;;;;;15.63;2.90;;;7.80;99.90;;;;;;5075194;28;20037;-76
2022/01/14 11:57:03;;;;;;;13.30;3.17;;;7.80;99.90;;;;;;5076988;28;20139;-76
2022/01/14 11:59:29;;;;;;;14.07;4.32;;;7.70;99.90;;;;;;5078229;28;20123;-76
2022/01/14 12:01:59;;;;;;;16.30;2.95;;;7.70;99.90;;;;;;5078532;28;20040;-76
2022/01/14 12:05:03;;;;;;;13.75;3.08;;;7.70;99.90;;;;;;5079494;28;20063;-76
2022/01/14 12:07:29;;;;;;;16.67;3.83;;;7.70;99.90;;;;;;5076278;28;20160;-76
2022/01/14 12:10:01;;;;;;;16.27;3.22;;;7.70;99.90;;;;;;5079402;28;20184;-76
2022/01/14 12:12:30;;;;;;;17.38;3.58;;;7.70;99.90;;;;;;5080031;28;20113;-76
2022/01/14 12:14:58;;;;;;;15.57;4.15;;;7.70;99.90;;;;;;5076950;28;20405;-76
2022/01/14 12:17:40;;;;;;;10.00;3.10;;;7.70;99.90;;;;;;5077075;28;20044;-76
2022/01/14 12:20:14;;;;;;;15.65;4.05;;;7.80;99.90;;;;;;5079824;28;20048;-76
2022/01/14 12:22:41;;;;;;;10.48;4.68;;;7.80;99.90;;;;;;5113289;27;20120;-75
2022/01/14 12:25:08;;;;;;;15.95;4.30;;;7.70;99.90;;;;;;5078454;28;20046;-76
2022/01/14 12:27:43;;;;;;;12.57;3.20;;;7.80;99.90;;;;;;5076671;28;20059;-76
2022/01/14 12:30:28;;;;;;;15.43;2.92;;;7.70;99.90;;;;;;5079516;28;20056;-76
2022/01/14 12:32:55;;;;;;;18.77;2.97;;;7.80;99.90;;;;;;5083254;28;20040;-76
2022/01/14 12:35:27;;;;;;;11.93;2.72;;;7.80;99.90;;;;;;5083432;28;20092;-76
2022/01/14 12:37:55;;;;;;;16.75;3.25;;;7.80;99.90;;;;;;5109296;27;20052;-76
2022/01/14 12:40:36;;;;;;;15.48;3.53;;;7.80;99.90;;;;;;5080209;28;20032;-76
2022/01/14 12:43:12;;;;;;;11.15;2.65;;;7.80;99.90;;;;;;5077039;28;20036;-76
2022/01/14 12:46:35;;;;;;;17.23;3.78;;;7.80;99.90;;;;;;5085775;28;20028;-76
2022/01/14 12:51:10;;;;;;;15.00;3.40;;;7.80;99.90;;;;;;5091275;28;20130;-76
2022/01/14 12:53:36;;;;;;;14.95;3.03;;;7.80;99.90;;;;;;5090614;28;20050;-76
2022/01/14 12:56:13;;;;;;;13.30;4.28;;;7.80;99.90;;;;;;5088394;28;20044;-76
2022/01/14 12:58:58;;;;;;;12.98;3.25;;;7.80;99.90;;;;;;5090112;28;20667;-76
2022/01/14 13:01:26;;;;;;;14.15;3.03;;;7.80;99.90;;;;;;5087689;28;20058;-76
2022/01/14 13:03:54;;;;;;;12.40;2.95;;;7.80;99.90;;;;;;5086012;28;20490;-76
2022/01/14 13:06:20;;;;;;;7.60;2.80;;;7.80;99.90;;;;;;5084890;28;20119;-76
2022/01/14 13:08:57;;;;;;;13.63;2.80;;;7.80;99.90;;;;;;5085795;28;20076;-76
2022/01/14 13:11:23;;;;;;;12.73;3.00;;;7.80;99.90;;;;;;5119620;27;20058;-76
2022/01/14 13:14:00;;;;;;;13.32;3.00;;;7.70;99.90;;;;;;5082728;28;20036;-76
2022/01/14 13:16:25;;;;;;;15.20;3.22;;;7.80;99.90;;;;;;5083735;28;20043;-76
2022/01/14 13:18:54;;;;;;;18.35;3.70;;;7.80;99.90;;;;;;5084435;28;20682;-76